Terminal Aerodrome Forecast
Issued by NWS

Home | Current Version | Previous Version | Text Only | Print | Product List | Glossary On
Versions: 1 2 3 4 5 6 7 8 9 10 11 12 13 14 15 16 17 18
000
FTUS42 KRAH 270550 CCA
TAFRWI
TAF COR
KRWI 270550Z 2706/2806 VRB03KT P6SM SCT060 BKN150 OVC250
      TEMPO 2706/2708 VRB15G25KT 3SM -SHRA BKN030
     FM270800 VRB03KT P6SM SCT150 BKN250
      TEMPO 2709/2712 3SM BR SCT005
     FM271800 24006KT P6SM SCT050 PROB30 2720/2802 VRB15G30KT 2SM
      TSRA BKN025CB=

USA.gov is the U.S. government's official web portal to all federal, state and local government web resources and services.